Boynton Beach, FL

5:34 AM EDT on April 21, 2015 (GMT -0400)
Rolling Green Ridge | | Change Station
CLOSE
Current Station
Personal Weather Station
Location: Boynton Beach, FL
Elevation: 19 ft
Nearby Weather Stations

Elev 19 ft 26.56 °N, 80.07 °W | Updated 9 seconds ago

Partly Cloudy
Partly Cloudy
72.1 °F
Feels Like 72.1 °F
N
0.0
Wind Variable Wind from SW
Gusts 1.7 mph

Today
High -- | Low -- °F
--% Chance of Precip.
Yesterday
High -- | Low -- °F
Precip. -- in
6:51 AM 7:47 PM
Waxing Crescent, 9% visible
Pressure 29.93 in
Visibility 10.0 miles
Clouds Scattered Clouds 15000 ft
Scattered Clouds 25000 ft
Dew Point 70 °F
Humidity 94%
Rainfall 0.00 in
Snow Depth Not available.
UV 0 out of 12
Pollen 2.90 out of 12
Air Quality Not available.
Flu Activity Local Activity
METAR KPBI 210853Z 33008KT 10SM SCT150 SCT250 22/22 A2993 RMK AO2 SLP135 T02220217 53002 $

More Conditions Fewer Conditions

Pressure 29.93 in
Visibility 10.0 miles
Clouds Scattered Clouds 15000 ft
Scattered Clouds 25000 ft
Dew Point 70 °F
Humidity 94%
Rainfall 0.00 in
Snow Depth Not available.
UV 0 out of 12
Pollen 2.90 out of 12
Air Quality Not available.
Flu Activity Local Activity
METAR KPBI 210853Z 33008KT 10SM SCT150 SCT250 22/22 A2993 RMK AO2 SLP135 T02220217 53002 $

More Conditions Fewer Conditions

10-Day Weather Forecast

Almanac

Astronomy

Apr. 21, 2015 Rise Set
Actual Time
Civil Twilight
Nautical Twilight
Astronomical Twilight
Moon
Length of Visible Light
Length of Day
Tomorrow will be .
, % of the Moon is Illuminated

Today's Extremes

State Highs State Lows

Community

WunderPhotos

Upload Photos

1,815,330 photos uploaded!

WunderBlogs® & News

Nearby

Air Quality

  Air Quality AQ Index Pollutant
Not available.

Snow Depth

Station Depth Elevation

Earthquake Activity

City Distance Mag. Time & Date
Minimum magnitude displayed is 2.5.

Coastal Water Temperatures

Place Temperature

Stations

Nearby Weather Stations

Station Location Temp. Windchill Dew Point Humidity Wind Precip. Elev Updated Type